Morattico, Virginia
Current Conditions -  °F | °C
As of 7:35 AM on Friday 21 Nov 2014 (Local Time) from KXSA Reporting Station
Clear Clear  
Wind Chill: 30°   Ceiling: Unl
Heat Index: 30°   Visibility: 10mi
Dew Point: 11°   Wind: 0mph
Humidity: 47%   Direction: NA
Pressure: 30.37"   Gusts: NA
Location:  37.79°N, 76.63°W
Report Text: KXSA 211235Z AUTO 00000KT 10SM CLR M01/M11 A3037 RMK AO2 T10131114
Loading
Personal Weather Stations






























Interactive Weather Map New forecast layout! Learn more

10-Day Weather Forecast

Advertisements
Track Severe Weather on mobile